createdAt,value
2022-09-21T00:53:39.794Z,73.00
2022-09-21T00:56:21.881Z,73.38
2022-09-21T00:59:10.665Z,73.02
2022-09-21T01:01:59.762Z,71.85
2022-09-21T01:04:42.939Z,73.29
2022-09-21T01:07:35.644Z,72.69
2022-09-21T05:11:33.969Z,56.72
2022-09-21T05:14:30.983Z,55.83
2022-09-21T05:17:23.967Z,56.71
2022-09-21T05:20:07.051Z,55.22
2022-09-21T05:22:49.288Z,57.04
2022-09-21T05:25:37.997Z,59.03
2022-09-21T05:28:21.177Z,56.82
2022-09-21T05:31:36.307Z,56.69
2022-09-21T05:34:51.486Z,54.88
2022-09-21T05:38:01.021Z,55.48
2022-09-21T05:40:43.803Z,53.31
2022-09-21T05:43:33.031Z,52.36
2022-09-21T05:46:21.142Z,52.27
2022-09-21T05:49:16.935Z,55.36
2022-09-21T05:52:24.067Z,50.65
2022-09-21T05:55:36.973Z,50.95
2022-09-21T05:58:48.983Z,51.21
2022-09-21T06:01:38.230Z,48.74
2022-09-21T06:04:21.170Z,49.46
2022-09-21T06:07:03.296Z,51.82
2022-09-21T06:09:51.978Z,52.21
2022-09-21T06:12:43.186Z,53.21
2022-09-21T06:15:31.941Z,51.86
2022-09-21T06:18:21.046Z,50.25
2022-09-21T06:21:04.383Z,49.99
2022-09-21T06:23:53.121Z,48.58
2022-09-21T06:26:36.433Z,50.81
2022-09-21T06:29:31.101Z,49.35
2022-09-21T06:32:13.403Z,50.32
2022-09-21T06:35:01.999Z,48.71
2022-09-21T06:37:45.039Z,48.84
2022-09-21T06:40:37.991Z,49.41
2022-09-21T06:43:20.429Z,49.23
2022-09-21T06:46:11.218Z,50.75
2022-09-21T06:48:59.989Z,51.58
2022-09-21T06:51:48.991Z,53.16
2022-09-21T06:54:38.093Z,53.53
2022-09-21T06:57:26.342Z,56.00
2022-09-21T07:00:09.995Z,58.28
2022-09-21T07:02:52.388Z,59.79
2022-09-21T07:05:41.988Z,59.54
2022-09-21T07:11:49.086Z,63.38
2022-09-21T07:14:37.317Z,63.88
2022-09-21T07:17:20.980Z,65.13
2022-09-21T07:20:03.767Z,66.52
2022-09-21T07:22:53.013Z,66.38
2022-09-21T07:25:41.950Z,64.69
2022-09-21T07:28:25.419Z,65.63
2022-09-21T07:31:22.120Z,65.76
2022-09-21T07:34:06.375Z,68.08
2022-09-21T07:36:55.097Z,75.49
2022-09-21T07:39:46.955Z,78.54
2022-09-21T07:42:35.376Z,76.61
2022-09-21T07:45:18.071Z,76.54
2022-09-21T07:48:13.936Z,78.17
2022-09-21T07:51:06.154Z,79.28
2022-09-21T07:53:48.395Z,81.90
2022-09-21T07:56:37.152Z,82.35
2022-09-21T07:59:20.904Z,80.96
2022-09-21T08:02:10.113Z,81.89
2022-09-21T08:04:58.950Z,82.39
2022-09-21T08:07:41.400Z,82.21
2022-09-21T08:10:30.079Z,81.79
2022-09-21T08:13:24.917Z,80.78
2022-09-21T08:16:13.946Z,81.22
2022-09-21T08:18:56.498Z,82.60
2022-09-21T08:21:45.005Z,80.27
2022-09-21T08:24:28.390Z,77.75
2022-09-21T08:27:17.057Z,79.87
2022-09-21T08:29:59.334Z,80.98
2022-09-21T08:32:51.390Z,79.88
2022-09-21T08:35:42.101Z,80.85
2022-09-21T08:38:24.546Z,79.60
2022-09-21T08:41:15.126Z,80.98
2022-09-21T08:44:11.160Z,78.82
2022-09-21T08:47:03.073Z,79.73
2022-09-21T08:49:58.316Z,79.88
2022-09-21T08:52:43.613Z,79.55
2022-09-21T08:55:34.418Z,79.49
2022-09-21T08:58:45.068Z,80.30
2022-09-21T09:01:43.019Z,80.85
2022-09-21T09:04:47.114Z,80.68
2022-09-21T09:08:10.991Z,79.19
2022-09-21T09:11:18.998Z,81.22
2022-09-21T09:14:20.004Z,81.67
2022-09-21T09:17:44.988Z,80.77
2022-09-21T09:20:53.930Z,79.10
2022-09-21T09:23:49.835Z,79.80
2022-09-21T09:26:42.959Z,76.72
2022-09-21T09:29:59.446Z,76.13
2022-09-21T09:32:59.970Z,75.22
2022-09-21T09:35:56.361Z,76.99
2022-09-21T09:38:58.925Z,77.24
2022-09-21T09:41:59.057Z,78.53
2022-09-21T09:45:00.932Z,75.76
2022-09-21T09:48:17.020Z,76.14
2022-09-21T09:51:05.912Z,78.07
2022-09-21T09:53:55.032Z,78.04
2022-09-21T09:56:40.297Z,77.00
2022-09-21T09:59:38.048Z,79.27
2022-09-21T10:02:41.013Z,76.02
2022-09-21T10:05:26.300Z,73.77
2022-09-21T10:08:15.934Z,72.02
2022-09-21T10:11:05.928Z,72.96
2022-09-21T10:14:03.971Z,71.21
2022-09-21T10:17:00.005Z,69.57
2022-09-21T10:19:49.402Z,69.44
2022-09-21T10:22:32.094Z,68.67
2022-09-21T10:25:28.330Z,68.27
2022-09-21T10:28:14.053Z,67.88
2022-09-21T10:31:18.099Z,65.51
2022-09-21T10:34:20.021Z,65.73
2022-09-21T10:37:10.909Z,66.15
2022-09-21T10:40:03.091Z,66.32
2022-09-21T10:42:45.510Z,66.21
2022-09-21T10:45:36.068Z,64.14
2022-09-21T10:48:22.634Z,64.30
2022-09-21T10:51:11.938Z,64.74
2022-09-21T10:54:00.918Z,68.77
2022-09-21T10:56:49.916Z,68.48
2022-09-21T10:59:34.647Z,67.64
2022-09-21T11:02:51.010Z,67.95
2022-09-21T11:05:42.870Z,65.85
2022-09-21T11:08:45.015Z,63.50
2022-09-21T11:11:50.674Z,64.00
2022-09-21T11:15:02.918Z,60.75
2022-09-21T11:18:30.015Z,61.21
2022-09-21T11:21:42.942Z,61.71
2022-09-21T11:24:56.435Z,65.68
2022-09-21T11:27:50.466Z,62.84
2022-09-21T11:31:07.002Z,66.76
2022-09-21T11:34:00.315Z,64.52
2022-09-21T11:37:04.974Z,66.35
2022-09-21T11:39:53.378Z,66.12
2022-09-21T11:43:01.031Z,63.75
2022-09-21T11:46:05.030Z,65.84
2022-09-21T11:49:19.933Z,65.97
2022-09-21T11:52:16.314Z,66.07
2022-09-21T11:55:40.983Z,68.06
2022-09-21T11:58:47.293Z,62.20
2022-09-21T12:01:44.012Z,66.45
2022-09-21T12:04:36.031Z,63.31
2022-09-21T12:07:42.910Z,63.01
2022-09-21T12:11:15.372Z,63.44
2022-09-21T12:14:22.937Z,65.02
2022-09-21T12:17:41.930Z,67.15
2022-09-21T12:20:52.774Z,69.05
2022-09-21T12:24:09.026Z,69.82
2022-09-21T12:26:56.850Z,69.85
2022-09-21T12:30:01.011Z,70.05
2022-09-21T12:32:51.289Z,70.84
2022-09-21T12:39:14.975Z,71.40
2022-09-21T12:42:16.998Z,71.96
2022-09-21T12:45:19.135Z,71.34
2022-09-21T12:48:11.005Z,72.08
2022-09-21T12:51:36.087Z,72.81
2022-09-21T12:54:49.935Z,73.00
2022-09-21T12:58:18.069Z,73.52
2022-09-21T13:01:14.059Z,73.08
2022-09-21T13:04:14.089Z,73.43
2022-09-21T13:07:39.976Z,73.47
2022-09-21T13:11:02.984Z,73.14
2022-09-21T13:13:53.946Z,73.34
2022-09-21T13:16:51.060Z,72.95
2022-09-21T13:19:50.083Z,74.42
2022-09-21T13:22:44.353Z,74.61
2022-09-21T13:25:30.023Z,75.60
2022-09-21T13:28:17.897Z,76.05
2022-09-21T13:31:41.139Z,76.04
2022-09-21T13:34:27.150Z,75.06
2022-09-21T13:37:25.955Z,75.59
2022-09-21T13:40:14.535Z,75.58
2022-09-21T13:42:58.068Z,76.32
2022-09-21T13:45:41.024Z,75.74
2022-09-21T13:48:38.993Z,75.72
2022-09-21T13:51:27.330Z,76.68
2022-09-21T13:54:12.100Z,75.79
2022-09-21T13:57:12.558Z,76.51
2022-09-21T13:59:57.000Z,76.85
2022-09-21T14:02:59.082Z,77.20
2022-09-21T14:05:46.338Z,76.59
2022-09-21T14:08:41.402Z,77.09
2022-09-21T14:11:50.858Z,76.30
2022-09-21T14:14:46.048Z,77.33
2022-09-21T14:17:55.027Z,76.66
2022-09-21T14:20:46.994Z,75.28
2022-09-21T14:23:32.906Z,75.56
2022-09-21T14:26:42.076Z,75.90
2022-09-21T14:29:40.283Z,75.35
2022-09-21T14:32:35.098Z,75.66
2022-09-21T14:35:46.797Z,75.29
2022-09-21T14:38:43.983Z,75.36
2022-09-21T14:41:39.990Z,77.00
2022-09-21T14:44:33.373Z,75.79
2022-09-21T14:47:46.919Z,75.62
2022-09-21T14:51:02.087Z,75.48
2022-09-21T14:54:22.043Z,76.73
2022-09-21T14:57:44.472Z,76.75
2022-09-21T15:00:30.972Z,76.11
2022-09-21T15:03:41.097Z,76.33
2022-09-21T15:07:06.986Z,75.36
2022-09-21T15:10:42.960Z,76.33
2022-09-21T15:13:46.856Z,76.06
2022-09-21T15:16:52.972Z,76.17
2022-09-21T15:19:51.811Z,75.96
2022-09-21T15:22:47.941Z,76.58
2022-09-21T15:25:41.067Z,77.29
2022-09-21T15:28:23.846Z,77.18
2022-09-21T15:31:15.101Z,77.61
2022-09-21T15:33:59.417Z,76.55
2022-09-21T15:36:59.004Z,77.33
2022-09-21T15:39:42.407Z,76.92
2022-09-21T15:42:30.973Z,77.45
2022-09-21T15:45:26.572Z,77.31
2022-09-21T15:48:20.005Z,77.41
2022-09-21T15:51:08.777Z,77.10
2022-09-21T15:54:15.045Z,76.89
2022-09-21T15:56:57.713Z,77.27
2022-09-21T15:59:54.956Z,77.26
2022-09-21T16:02:54.042Z,77.70
2022-09-21T16:05:58.872Z,78.80
2022-09-21T16:08:45.418Z,78.56
2022-09-21T16:11:45.088Z,78.50
2022-09-21T16:14:47.068Z,78.72
2022-09-21T16:17:36.967Z,78.32
2022-09-21T16:20:24.375Z,78.73
2022-09-21T16:23:26.044Z,79.63
2022-09-21T16:26:14.913Z,79.77
2022-09-21T16:29:04.315Z,79.39
2022-09-21T16:31:54.970Z,80.15
2022-09-21T16:34:41.330Z,79.77
2022-09-21T16:37:35.964Z,79.33
2022-09-21T16:40:18.281Z,79.50
2022-09-21T16:43:07.996Z,79.61
2022-09-21T16:45:57.042Z,78.45
2022-09-21T16:48:39.373Z,78.13
2022-09-21T16:51:32.990Z,78.87
2022-09-21T16:54:22.035Z,78.10
2022-09-21T16:57:14.018Z,76.66
2022-09-21T16:59:56.635Z,77.52
2022-09-21T17:02:52.971Z,77.42
2022-09-21T17:05:35.296Z,78.21
2022-09-21T17:08:26.047Z,78.16
2022-09-21T17:11:08.387Z,77.82
2022-09-21T17:13:56.989Z,78.46
2022-09-21T17:16:39.350Z,78.45
2022-09-21T17:19:27.992Z,78.15
2022-09-21T17:22:25.861Z,78.65
2022-09-21T17:25:21.974Z,78.43
2022-09-21T17:28:13.600Z,79.10
2022-09-21T17:31:02.169Z,79.67
2022-09-21T17:33:44.872Z,80.95
2022-09-21T17:36:33.987Z,80.18
2022-09-21T17:39:22.932Z,80.71
2022-09-21T17:42:22.266Z,79.51
2022-09-21T17:45:32.977Z,79.29
2022-09-21T17:48:34.317Z,79.47
2022-09-21T17:51:42.889Z,80.05
2022-09-21T17:54:33.010Z,78.87
2022-09-21T17:57:33.555Z,78.87
2022-09-21T18:00:34.912Z,78.57
2022-09-21T18:03:29.194Z,78.21
2022-09-21T18:06:18.976Z,78.43
2022-09-21T18:09:02.663Z,78.76
2022-09-21T18:12:03.984Z,79.27
2022-09-21T18:15:24.212Z,78.84
2022-09-21T18:18:45.980Z,78.85
2022-09-21T18:21:29.056Z,79.00
2022-09-21T18:24:40.006Z,79.50
2022-09-21T18:27:24.099Z,79.01
2022-09-21T18:30:12.978Z,79.26
2022-09-21T18:33:33.001Z,79.93
2022-09-21T18:36:34.901Z,80.19
2022-09-21T18:39:54.008Z,79.08
2022-09-21T18:43:00.037Z,79.08
2022-09-21T18:45:58.960Z,78.30
2022-09-21T18:49:32.909Z,78.54
2022-09-21T18:52:39.008Z,79.44
2022-09-21T18:55:34.465Z,79.63
2022-09-21T18:58:18.002Z,79.49
2022-09-21T19:01:08.226Z,79.89
2022-09-21T19:03:51.425Z,79.92
2022-09-21T19:06:46.898Z,79.25
2022-09-21T19:10:05.888Z,79.34
2022-09-21T19:13:03.470Z,78.71
2022-09-21T19:16:12.045Z,78.73
2022-09-21T19:19:16.050Z,78.87
2022-09-21T19:22:14.984Z,79.19
2022-09-21T19:25:19.929Z,78.80
2022-09-21T19:28:42.932Z,80.37
2022-09-21T19:31:31.935Z,79.38
2022-09-21T19:34:32.341Z,79.44
2022-09-21T19:37:23.030Z,80.47
2022-09-21T19:40:06.118Z,80.21
2022-09-21T19:42:57.991Z,80.63
2022-09-21T19:46:12.084Z,80.11
2022-09-21T19:49:00.768Z,79.27
2022-09-21T19:52:00.902Z,79.33
2022-09-21T19:55:14.979Z,79.60
2022-09-21T19:58:22.912Z,80.38
2022-09-21T20:01:11.920Z,80.28
2022-09-21T20:04:00.884Z,80.51
2022-09-21T20:07:01.941Z,80.18
2022-09-21T20:09:55.261Z,81.14
2022-09-21T20:13:07.973Z,82.59
2022-09-21T20:15:58.037Z,82.00
2022-09-21T20:19:27.930Z,82.12
2022-09-21T20:22:25.874Z,81.02
2022-09-21T20:25:27.838Z,80.95
2022-09-21T20:28:23.899Z,81.11
2022-09-21T20:31:13.291Z,81.10
2022-09-21T20:33:55.888Z,81.72
2022-09-21T20:36:38.352Z,81.16
2022-09-21T20:39:26.988Z,81.16
2022-09-21T20:42:46.878Z,81.41
2022-09-21T20:45:37.064Z,81.25
2022-09-21T20:48:25.249Z,81.55
2022-09-21T20:51:10.904Z,81.55
2022-09-21T20:53:53.183Z,81.23
2022-09-21T20:56:41.984Z,81.67
2022-09-21T20:59:24.167Z,81.34
2022-09-21T21:02:12.971Z,82.05
2022-09-21T21:05:01.297Z,82.19
2022-09-21T21:07:43.881Z,81.98
2022-09-21T21:10:32.909Z,82.04
2022-09-21T21:13:15.348Z,81.77
2022-09-21T21:16:06.983Z,81.54
2022-09-21T21:18:51.888Z,82.03
2022-09-21T21:21:42.028Z,82.45
2022-09-21T21:24:42.884Z,82.45
2022-09-21T21:27:39.955Z,83.06
2022-09-21T21:30:25.073Z,82.04
2022-09-21T21:33:13.888Z,81.78
2022-09-21T21:36:02.266Z,81.71
2022-09-21T21:38:49.387Z,81.62
2022-09-21T21:41:32.550Z,82.68
2022-09-21T21:44:20.992Z,81.71
2022-09-21T21:47:27.432Z,81.42
2022-09-21T21:50:11.968Z,81.55
2022-09-21T21:53:06.229Z,80.93
2022-09-21T21:55:47.875Z,82.11
2022-09-21T21:58:30.283Z,81.57
2022-09-21T22:01:28.939Z,82.24
2022-09-21T22:04:18.236Z,82.17
2022-09-21T22:07:00.956Z,81.70
2022-09-21T22:09:49.299Z,82.29
2022-09-21T22:12:31.039Z,81.66
2022-09-21T22:15:20.261Z,82.35
2022-09-21T22:18:01.888Z,82.87
2022-09-21T22:20:50.734Z,82.20
2022-09-21T22:23:32.966Z,82.14
2022-09-21T22:26:30.809Z,81.89
2022-09-21T22:29:27.894Z,81.46
2022-09-21T22:32:17.041Z,81.55
2022-09-21T22:34:59.300Z,81.54
2022-09-21T22:37:48.015Z,81.54
2022-09-21T22:40:30.300Z,81.17
2022-09-21T22:43:18.961Z,82.00
2022-09-21T22:46:02.361Z,81.60
2022-09-21T22:48:50.857Z,81.64
2022-09-21T22:51:33.281Z,82.10
2022-09-21T22:54:21.972Z,81.56
2022-09-21T22:57:04.244Z,81.83
2022-09-21T22:59:52.978Z,81.64
2022-09-21T23:02:36.446Z,81.47
2022-09-21T23:05:24.994Z,81.83
2022-09-21T23:08:13.889Z,81.70
2022-09-21T23:10:56.587Z,81.60
2022-09-21T23:13:44.870Z,81.67
2022-09-21T23:16:35.289Z,81.81
2022-09-21T23:19:22.838Z,82.32
2022-09-21T23:22:11.887Z,82.45
2022-09-21T23:24:54.265Z,82.74
2022-09-21T23:27:43.024Z,83.10
2022-09-21T23:30:25.223Z,82.91
2022-09-21T23:33:13.895Z,82.56
2022-09-21T23:35:59.281Z,83.05
2022-09-21T23:38:49.968Z,83.00
2022-09-21T23:41:37.253Z,82.63
2022-09-21T23:44:25.950Z,82.55
2022-09-21T23:47:08.290Z,83.19
2022-09-21T23:49:56.961Z,83.37
2022-09-21T23:52:39.320Z,82.97
2022-09-21T23:55:27.952Z,82.41
2022-09-21T23:58:10.237Z,82.46
